sensor_id;sensor_type;location;lat;lon;timestamp;P1;durP1;ratioP1;P2;durP2;ratioP2
23496;SDS011;11925;48.122;11.560;2022-10-16T00:01:16;4.60;;;1.90;;
23496;SDS011;11925;48.122;11.560;2022-10-16T00:03:46;3.63;;;2.03;;
23496;SDS011;11925;48.122;11.560;2022-10-16T00:06:16;3.25;;;1.70;;
23496;SDS011;11925;48.122;11.560;2022-10-16T00:08:48;5.70;;;1.85;;
23496;SDS011;11925;48.122;11.560;2022-10-16T00:11:18;2.67;;;1.63;;
23496;SDS011;11925;48.122;11.560;2022-10-16T00:13:47;3.03;;;1.90;;
23496;SDS011;11925;48.122;11.560;2022-10-16T00:16:17;3.40;;;1.80;;
23496;SDS011;11925;48.122;11.560;2022-10-16T00:18:46;3.47;;;1.55;;
23496;SDS011;11925;48.122;11.560;2022-10-16T00:21:16;4.10;;;1.88;;
23496;SDS011;11925;48.122;11.560;2022-10-16T00:23:49;2.15;;;1.52;;
23496;SDS011;11925;48.122;11.560;2022-10-16T00:26:19;5.30;;;1.67;;
23496;SDS011;11925;48.122;11.560;2022-10-16T00:28:47;4.47;;;1.90;;
23496;SDS011;11925;48.122;11.560;2022-10-16T00:31:18;3.78;;;1.63;;
23496;SDS011;11925;48.122;11.560;2022-10-16T00:33:48;3.10;;;2.17;;
23496;SDS011;11925;48.122;11.560;2022-10-16T00:36:18;3.65;;;2.22;;
23496;SDS011;11925;48.122;11.560;2022-10-16T00:38:50;4.35;;;2.50;;
23496;SDS011;11925;48.122;11.560;2022-10-16T00:41:22;4.20;;;2.60;;
23496;SDS011;11925;48.122;11.560;2022-10-16T00:43:52;5.25;;;2.10;;
23496;SDS011;11925;48.122;11.560;2022-10-16T00:46:22;4.30;;;2.55;;
23496;SDS011;11925;48.122;11.560;2022-10-16T00:48:55;4.82;;;2.50;;
23496;SDS011;11925;48.122;11.560;2022-10-16T00:51:28;2.83;;;2.00;;
23496;SDS011;11925;48.122;11.560;2022-10-16T00:54:02;6.00;;;2.78;;
23496;SDS011;11925;48.122;11.560;2022-10-16T00:56:34;4.45;;;2.78;;
23496;SDS011;11925;48.122;11.560;2022-10-16T00:59:03;5.00;;;2.75;;
23496;SDS011;11925;48.122;11.560;2022-10-16T01:01:43;6.07;;;3.08;;
23496;SDS011;11925;48.122;11.560;2022-10-16T01:04:12;5.18;;;3.28;;
23496;SDS011;11925;48.122;11.560;2022-10-16T01:06:42;5.50;;;3.40;;
23496;SDS011;11925;48.122;11.560;2022-10-16T01:09:19;5.43;;;3.25;;
23496;SDS011;11925;48.122;11.560;2022-10-16T01:11:55;5.35;;;3.00;;
23496;SDS011;11925;48.122;11.560;2022-10-16T01:14:32;3.63;;;2.33;;
23496;SDS011;11925;48.122;11.560;2022-10-16T01:17:08;6.40;;;2.40;;
23496;SDS011;11925;48.122;11.560;2022-10-16T01:19:57;6.10;;;2.17;;
23496;SDS011;11925;48.122;11.560;2022-10-16T01:22:38;3.70;;;2.30;;
23496;SDS011;11925;48.122;11.560;2022-10-16T01:25:17;2.95;;;2.17;;
23496;SDS011;11925;48.122;11.560;2022-10-16T01:27:54;9.32;;;2.15;;
23496;SDS011;11925;48.122;11.560;2022-10-16T01:30:24;2.75;;;1.60;;
23496;SDS011;11925;48.122;11.560;2022-10-16T01:32:57;2.85;;;1.73;;
23496;SDS011;11925;48.122;11.560;2022-10-16T01:35:31;3.28;;;1.75;;
23496;SDS011;11925;48.122;11.560;2022-10-16T01:38:03;2.67;;;1.65;;
23496;SDS011;11925;48.122;11.560;2022-10-16T01:40:36;3.20;;;1.92;;
23496;SDS011;11925;48.122;11.560;2022-10-16T01:45:40;3.05;;;1.40;;
23496;SDS011;11925;48.122;11.560;2022-10-16T01:48:09;3.08;;;1.52;;
23496;SDS011;11925;48.122;11.560;2022-10-16T01:53:10;3.03;;;1.52;;
23496;SDS011;11925;48.122;11.560;2022-10-16T01:58:14;3.03;;;1.30;;
23496;SDS011;11925;48.122;11.560;2022-10-16T02:00:43;3.03;;;1.40;;
23496;SDS011;11925;48.122;11.560;2022-10-16T02:03:14;2.20;;;1.45;;
23496;SDS011;11925;48.122;11.560;2022-10-16T02:05:46;2.55;;;1.48;;
23496;SDS011;11925;48.122;11.560;2022-10-16T02:08:17;1.75;;;1.17;;
23496;SDS011;11925;48.122;11.560;2022-10-16T02:10:46;3.92;;;1.60;;
23496;SDS011;11925;48.122;11.560;2022-10-16T02:13:17;2.63;;;1.50;;
23496;SDS011;11925;48.122;11.560;2022-10-16T02:15:49;2.95;;;1.23;;
23496;SDS011;11925;48.122;11.560;2022-10-16T02:18:20;3.83;;;1.67;;
23496;SDS011;11925;48.122;11.560;2022-10-16T02:20:50;2.25;;;1.17;;
23496;SDS011;11925;48.122;11.560;2022-10-16T02:23:24;2.03;;;1.15;;
23496;SDS011;11925;48.122;11.560;2022-10-16T02:26:00;2.60;;;1.25;;
23496;SDS011;11925;48.122;11.560;2022-10-16T02:28:34;5.60;;;1.35;;
23496;SDS011;11925;48.122;11.560;2022-10-16T02:31:09;2.53;;;1.00;;
23496;SDS011;11925;48.122;11.560;2022-10-16T02:33:39;1.53;;;1.13;;
23496;SDS011;11925;48.122;11.560;2022-10-16T02:36:09;2.80;;;1.10;;
23496;SDS011;11925;48.122;11.560;2022-10-16T02:38:39;3.50;;;1.25;;
23496;SDS011;11925;48.122;11.560;2022-10-16T02:41:08;1.52;;;1.00;;
23496;SDS011;11925;48.122;11.560;2022-10-16T02:43:38;3.35;;;1.08;;
23496;SDS011;11925;48.122;11.560;2022-10-16T02:46:06;3.75;;;1.20;;
23496;SDS011;11925;48.122;11.560;2022-10-16T02:48:35;1.83;;;1.13;;
23496;SDS011;11925;48.122;11.560;2022-10-16T02:51:03;2.47;;;1.10;;
23496;SDS011;11925;48.122;11.560;2022-10-16T02:53:31;1.73;;;1.10;;
23496;SDS011;11925;48.122;11.560;2022-10-16T02:56:00;4.03;;;1.05;;
23496;SDS011;11925;48.122;11.560;2022-10-16T02:58:28;2.15;;;1.10;;
23496;SDS011;11925;48.122;11.560;2022-10-16T03:00:58;2.60;;;1.17;;
23496;SDS011;11925;48.122;11.560;2022-10-16T03:03:26;3.28;;;1.17;;
23496;SDS011;11925;48.122;11.560;2022-10-16T03:05:54;1.67;;;1.15;;
23496;SDS011;11925;48.122;11.560;2022-10-16T03:08:23;1.73;;;1.00;;
23496;SDS011;11925;48.122;11.560;2022-10-16T03:10:51;1.50;;;0.93;;
23496;SDS011;11925;48.122;11.560;2022-10-16T03:13:20;2.03;;;1.17;;
23496;SDS011;11925;48.122;11.560;2022-10-16T03:15:48;2.10;;;1.00;;
23496;SDS011;11925;48.122;11.560;2022-10-16T03:18:18;1.63;;;0.90;;
23496;SDS011;11925;48.122;11.560;2022-10-16T03:20:46;3.15;;;0.90;;
23496;SDS011;11925;48.122;11.560;2022-10-16T03:23:15;2.78;;;1.30;;
23496;SDS011;11925;48.122;11.560;2022-10-16T03:25:43;1.73;;;1.10;;
23496;SDS011;11925;48.122;11.560;2022-10-16T03:28:13;2.75;;;0.80;;
23496;SDS011;11925;48.122;11.560;2022-10-16T03:30:42;1.80;;;1.05;;
23496;SDS011;11925;48.122;11.560;2022-10-16T03:33:11;2.80;;;0.90;;
23496;SDS011;11925;48.122;11.560;2022-10-16T03:35:41;0.98;;;0.80;;
23496;SDS011;11925;48.122;11.560;2022-10-16T03:38:09;2.08;;;0.77;;
23496;SDS011;11925;48.122;11.560;2022-10-16T03:40:37;1.50;;;0.90;;
23496;SDS011;11925;48.122;11.560;2022-10-16T03:43:05;3.05;;;0.98;;
23496;SDS011;11925;48.122;11.560;2022-10-16T03:45:34;1.13;;;0.80;;
23496;SDS011;11925;48.122;11.560;2022-10-16T03:48:02;2.38;;;1.20;;
23496;SDS011;11925;48.122;11.560;2022-10-16T03:50:31;3.20;;;1.00;;
23496;SDS011;11925;48.122;11.560;2022-10-16T03:53:00;2.05;;;1.00;;
23496;SDS011;11925;48.122;11.560;2022-10-16T03:55:29;1.38;;;1.10;;
23496;SDS011;11925;48.122;11.560;2022-10-16T03:57:57;1.83;;;0.85;;
23496;SDS011;11925;48.122;11.560;2022-10-16T04:00:25;1.58;;;0.90;;
23496;SDS011;11925;48.122;11.560;2022-10-16T04:02:54;2.58;;;0.93;;
23496;SDS011;11925;48.122;11.560;2022-10-16T04:05:22;1.88;;;1.00;;
23496;SDS011;11925;48.122;11.560;2022-10-16T04:07:51;1.52;;;0.90;;
23496;SDS011;11925;48.122;11.560;2022-10-16T04:10:20;2.67;;;0.98;;
23496;SDS011;11925;48.122;11.560;2022-10-16T04:12:49;3.90;;;1.02;;
23496;SDS011;11925;48.122;11.560;2022-10-16T04:15:17;2.03;;;1.20;;
23496;SDS011;11925;48.122;11.560;2022-10-16T04:17:45;3.10;;;1.02;;
23496;SDS011;11925;48.122;11.560;2022-10-16T04:20:13;2.63;;;1.00;;
23496;SDS011;11925;48.122;11.560;2022-10-16T04:22:42;1.35;;;0.93;;
23496;SDS011;11925;48.122;11.560;2022-10-16T04:25:11;3.85;;;1.20;;
23496;SDS011;11925;48.122;11.560;2022-10-16T04:27:40;2.20;;;1.00;;
23496;SDS011;11925;48.122;11.560;2022-10-16T04:30:11;1.58;;;0.98;;
23496;SDS011;11925;48.122;11.560;2022-10-16T04:32:40;1.88;;;1.02;;
23496;SDS011;11925;48.122;11.560;2022-10-16T04:35:09;1.85;;;0.98;;
23496;SDS011;11925;48.122;11.560;2022-10-16T04:37:37;1.63;;;1.02;;
23496;SDS011;11925;48.122;11.560;2022-10-16T04:40:05;2.25;;;1.20;;
23496;SDS011;11925;48.122;11.560;2022-10-16T04:42:34;2.72;;;1.05;;
23496;SDS011;11925;48.122;11.560;2022-10-16T04:45:05;3.72;;;1.00;;
23496;SDS011;11925;48.122;11.560;2022-10-16T04:47:40;1.60;;;1.10;;
23496;SDS011;11925;48.122;11.560;2022-10-16T04:50:08;1.50;;;1.00;;
23496;SDS011;11925;48.122;11.560;2022-10-16T04:52:37;2.85;;;1.10;;
23496;SDS011;11925;48.122;11.560;2022-10-16T04:55:05;3.05;;;1.10;;
23496;SDS011;11925;48.122;11.560;2022-10-16T04:57:34;2.05;;;1.20;;
23496;SDS011;11925;48.122;11.560;2022-10-16T05:00:03;1.73;;;1.10;;
23496;SDS011;11925;48.122;11.560;2022-10-16T05:05:02;1.88;;;1.00;;
23496;SDS011;11925;48.122;11.560;2022-10-16T05:07:31;4.30;;;1.08;;
23496;SDS011;11925;48.122;11.560;2022-10-16T05:10:00;3.45;;;1.00;;
23496;SDS011;11925;48.122;11.560;2022-10-16T05:12:28;2.50;;;1.40;;
23496;SDS011;11925;48.122;11.560;2022-10-16T05:14:56;3.40;;;1.33;;
23496;SDS011;11925;48.122;11.560;2022-10-16T05:17:26;3.45;;;1.40;;
23496;SDS011;11925;48.122;11.560;2022-10-16T05:19:55;2.78;;;1.10;;
23496;SDS011;11925;48.122;11.560;2022-10-16T05:22:23;2.10;;;1.20;;
23496;SDS011;11925;48.122;11.560;2022-10-16T05:24:52;3.55;;;1.38;;
23496;SDS011;11925;48.122;11.560;2022-10-16T05:27:20;2.22;;;1.30;;
23496;SDS011;11925;48.122;11.560;2022-10-16T05:29:49;2.10;;;1.13;;
23496;SDS011;11925;48.122;11.560;2022-10-16T05:32:17;5.07;;;1.10;;
23496;SDS011;11925;48.122;11.560;2022-10-16T05:34:47;2.88;;;1.20;;
23496;SDS011;11925;48.122;11.560;2022-10-16T05:37:15;3.05;;;1.38;;
23496;SDS011;11925;48.122;11.560;2022-10-16T05:39:44;1.70;;;1.38;;
23496;SDS011;11925;48.122;11.560;2022-10-16T05:42:12;4.15;;;1.15;;
23496;SDS011;11925;48.122;11.560;2022-10-16T05:44:40;2.00;;;1.40;;
23496;SDS011;11925;48.122;11.560;2022-10-16T05:47:09;2.08;;;1.25;;
23496;SDS011;11925;48.122;11.560;2022-10-16T05:49:38;2.90;;;1.88;;
23496;SDS011;11925;48.122;11.560;2022-10-16T05:52:08;3.20;;;1.58;;
23496;SDS011;11925;48.122;11.560;2022-10-16T05:54:36;2.63;;;1.27;;
23496;SDS011;11925;48.122;11.560;2022-10-16T05:57:04;2.08;;;1.55;;
23496;SDS011;11925;48.122;11.560;2022-10-16T05:59:33;4.03;;;1.73;;
23496;SDS011;11925;48.122;11.560;2022-10-16T06:02:01;2.70;;;1.33;;
23496;SDS011;11925;48.122;11.560;2022-10-16T06:04:29;3.50;;;1.30;;
23496;SDS011;11925;48.122;11.560;2022-10-16T06:06:58;2.03;;;1.30;;
23496;SDS011;11925;48.122;11.560;2022-10-16T06:09:29;2.60;;;1.40;;
23496;SDS011;11925;48.122;11.560;2022-10-16T06:11:57;3.83;;;1.70;;
23496;SDS011;11925;48.122;11.560;2022-10-16T06:14:26;3.13;;;1.52;;
23496;SDS011;11925;48.122;11.560;2022-10-16T06:16:54;3.17;;;1.88;;
23496;SDS011;11925;48.122;11.560;2022-10-16T06:19:23;2.35;;;1.33;;
23496;SDS011;11925;48.122;11.560;2022-10-16T06:21:51;1.90;;;1.30;;
23496;SDS011;11925;48.122;11.560;2022-10-16T06:24:19;2.10;;;1.30;;
23496;SDS011;11925;48.122;11.560;2022-10-16T06:26:49;2.45;;;1.40;;
23496;SDS011;11925;48.122;11.560;2022-10-16T06:29:17;3.83;;;1.83;;
23496;SDS011;11925;48.122;11.560;2022-10-16T06:31:46;3.42;;;1.48;;
23496;SDS011;11925;48.122;11.560;2022-10-16T06:34:14;2.90;;;1.48;;
23496;SDS011;11925;48.122;11.560;2022-10-16T06:36:43;3.08;;;1.70;;
23496;SDS011;11925;48.122;11.560;2022-10-16T06:39:11;3.00;;;1.40;;
23496;SDS011;11925;48.122;11.560;2022-10-16T06:41:39;4.82;;;1.65;;
23496;SDS011;11925;48.122;11.560;2022-10-16T06:44:15;1.95;;;1.38;;
23496;SDS011;11925;48.122;11.560;2022-10-16T06:46:43;3.97;;;1.65;;
23496;SDS011;11925;48.122;11.560;2022-10-16T06:49:12;2.83;;;1.38;;
23496;SDS011;11925;48.122;11.560;2022-10-16T06:51:42;4.85;;;1.48;;
23496;SDS011;11925;48.122;11.560;2022-10-16T06:54:10;3.50;;;1.83;;
23496;SDS011;11925;48.122;11.560;2022-10-16T06:56:38;2.53;;;1.42;;
23496;SDS011;11925;48.122;11.560;2022-10-16T06:59:06;3.50;;;1.40;;
23496;SDS011;11925;48.122;11.560;2022-10-16T07:01:36;4.47;;;1.80;;
23496;SDS011;11925;48.122;11.560;2022-10-16T07:04:04;2.72;;;1.55;;
23496;SDS011;11925;48.122;11.560;2022-10-16T07:06:33;2.30;;;1.45;;
23496;SDS011;11925;48.122;11.560;2022-10-16T07:09:06;2.47;;;1.55;;
23496;SDS011;11925;48.122;11.560;2022-10-16T07:11:40;3.15;;;1.70;;
23496;SDS011;11925;48.122;11.560;2022-10-16T07:14:12;3.00;;;1.60;;
23496;SDS011;11925;48.122;11.560;2022-10-16T07:16:45;4.05;;;1.60;;
23496;SDS011;11925;48.122;11.560;2022-10-16T07:19:14;2.60;;;1.80;;
23496;SDS011;11925;48.122;11.560;2022-10-16T07:21:44;3.67;;;1.70;;
23496;SDS011;11925;48.122;11.560;2022-10-16T07:24:13;3.33;;;1.73;;
23496;SDS011;11925;48.122;11.560;2022-10-16T07:26:43;2.28;;;1.60;;
23496;SDS011;11925;48.122;11.560;2022-10-16T07:29:13;5.00;;;2.10;;
23496;SDS011;11925;48.122;11.560;2022-10-16T07:31:42;2.70;;;1.85;;
23496;SDS011;11925;48.122;11.560;2022-10-16T07:34:13;3.78;;;1.80;;
23496;SDS011;11925;48.122;11.560;2022-10-16T07:36:42;4.07;;;2.20;;
23496;SDS011;11925;48.122;11.560;2022-10-16T07:39:10;2.78;;;1.70;;
23496;SDS011;11925;48.122;11.560;2022-10-16T07:41:40;3.35;;;1.90;;
23496;SDS011;11925;48.122;11.560;2022-10-16T07:44:08;3.33;;;1.75;;
23496;SDS011;11925;48.122;11.560;2022-10-16T07:46:36;2.55;;;1.60;;
23496;SDS011;11925;48.122;11.560;2022-10-16T07:49:06;3.88;;;1.85;;
23496;SDS011;11925;48.122;11.560;2022-10-16T07:51:35;3.90;;;1.80;;
23496;SDS011;11925;48.122;11.560;2022-10-16T07:54:04;5.60;;;1.90;;
23496;SDS011;11925;48.122;11.560;2022-10-16T07:56:33;2.75;;;1.58;;
23496;SDS011;11925;48.122;11.560;2022-10-16T07:59:05;2.70;;;1.67;;
23496;SDS011;11925;48.122;11.560;2022-10-16T08:01:33;4.65;;;2.90;;
23496;SDS011;11925;48.122;11.560;2022-10-16T08:04:02;4.80;;;2.70;;
23496;SDS011;11925;48.122;11.560;2022-10-16T08:06:34;6.72;;;3.20;;
23496;SDS011;11925;48.122;11.560;2022-10-16T08:09:03;6.03;;;3.15;;
23496;SDS011;11925;48.122;11.560;2022-10-16T08:11:32;4.20;;;2.67;;
23496;SDS011;11925;48.122;11.560;2022-10-16T08:14:00;3.67;;;2.40;;
23496;SDS011;11925;48.122;11.560;2022-10-16T08:16:29;4.30;;;2.67;;
23496;SDS011;11925;48.122;11.560;2022-10-16T08:18:57;4.45;;;2.33;;
23496;SDS011;11925;48.122;11.560;2022-10-16T08:21:25;3.92;;;2.33;;
23496;SDS011;11925;48.122;11.560;2022-10-16T08:23:55;4.47;;;2.10;;
23496;SDS011;11925;48.122;11.560;2022-10-16T08:26:24;5.82;;;2.35;;
23496;SDS011;11925;48.122;11.560;2022-10-16T08:28:53;3.00;;;2.10;;
23496;SDS011;11925;48.122;11.560;2022-10-16T08:31:22;3.28;;;2.35;;
23496;SDS011;11925;48.122;11.560;2022-10-16T08:33:52;4.60;;;2.40;;
23496;SDS011;11925;48.122;11.560;2022-10-16T08:36:21;3.20;;;1.83;;
23496;SDS011;11925;48.122;11.560;2022-10-16T08:38:49;4.57;;;2.10;;
23496;SDS011;11925;48.122;11.560;2022-10-16T08:41:26;3.65;;;2.30;;
23496;SDS011;11925;48.122;11.560;2022-10-16T08:47:26;3.25;;;1.90;;
23496;SDS011;11925;48.122;11.560;2022-10-16T08:50:08;4.70;;;2.20;;
23496;SDS011;11925;48.122;11.560;2022-10-16T08:52:40;4.35;;;2.38;;
23496;SDS011;11925;48.122;11.560;2022-10-16T08:55:16;3.28;;;2.10;;
23496;SDS011;11925;48.122;11.560;2022-10-16T08:58:05;3.15;;;2.40;;
23496;SDS011;11925;48.122;11.560;2022-10-16T09:00:39;3.70;;;2.30;;
23496;SDS011;11925;48.122;11.560;2022-10-16T09:03:11;3.92;;;2.30;;
23496;SDS011;11925;48.122;11.560;2022-10-16T09:06:05;3.33;;;2.40;;
23496;SDS011;11925;48.122;11.560;2022-10-16T09:08:54;4.70;;;2.53;;
23496;SDS011;11925;48.122;11.560;2022-10-16T09:11:33;4.50;;;2.75;;
23496;SDS011;11925;48.122;11.560;2022-10-16T09:14:15;4.93;;;2.95;;
23496;SDS011;11925;48.122;11.560;2022-10-16T09:17:06;5.82;;;3.85;;
23496;SDS011;11925;48.122;11.560;2022-10-16T09:19:45;6.25;;;3.97;;
23496;SDS011;11925;48.122;11.560;2022-10-16T09:22:19;6.90;;;4.45;;
23496;SDS011;11925;48.122;11.560;2022-10-16T09:24:49;8.55;;;4.57;;
23496;SDS011;11925;48.122;11.560;2022-10-16T09:27:18;8.13;;;5.00;;
23496;SDS011;11925;48.122;11.560;2022-10-16T09:29:47;8.00;;;5.07;;
23496;SDS011;11925;48.122;11.560;2022-10-16T09:32:17;6.43;;;4.72;;
23496;SDS011;11925;48.122;11.560;2022-10-16T09:37:17;7.28;;;5.05;;
23496;SDS011;11925;48.122;11.560;2022-10-16T09:39:50;7.57;;;4.82;;
23496;SDS011;11925;48.122;11.560;2022-10-16T09:42:19;9.10;;;4.88;;
23496;SDS011;11925;48.122;11.560;2022-10-16T09:44:52;6.15;;;4.00;;
23496;SDS011;11925;48.122;11.560;2022-10-16T09:47:22;6.93;;;4.38;;
23496;SDS011;11925;48.122;11.560;2022-10-16T09:49:53;6.82;;;4.35;;
23496;SDS011;11925;48.122;11.560;2022-10-16T09:52:22;6.28;;;4.22;;
23496;SDS011;11925;48.122;11.560;2022-10-16T09:54:55;5.53;;;4.43;;
23496;SDS011;11925;48.122;11.560;2022-10-16T09:57:25;6.70;;;4.40;;
23496;SDS011;11925;48.122;11.560;2022-10-16T09:59:57;5.78;;;3.60;;
23496;SDS011;11925;48.122;11.560;2022-10-16T10:02:27;5.53;;;3.67;;
23496;SDS011;11925;48.122;11.560;2022-10-16T10:04:58;4.57;;;3.30;;
23496;SDS011;11925;48.122;11.560;2022-10-16T10:07:27;5.72;;;3.85;;
23496;SDS011;11925;48.122;11.560;2022-10-16T10:09:59;5.25;;;3.67;;
23496;SDS011;11925;48.122;11.560;2022-10-16T10:12:29;6.57;;;3.45;;
23496;SDS011;11925;48.122;11.560;2022-10-16T10:15:05;5.70;;;3.67;;
23496;SDS011;11925;48.122;11.560;2022-10-16T10:17:45;7.07;;;4.00;;
23496;SDS011;11925;48.122;11.560;2022-10-16T10:20:25;6.40;;;3.90;;
23496;SDS011;11925;48.122;11.560;2022-10-16T10:22:55;8.05;;;4.97;;
23496;SDS011;11925;48.122;11.560;2022-10-16T10:25:29;7.03;;;4.20;;
23496;SDS011;11925;48.122;11.560;2022-10-16T10:28:20;5.45;;;3.72;;
23496;SDS011;11925;48.122;11.560;2022-10-16T10:31:31;6.68;;;4.80;;
23496;SDS011;11925;48.122;11.560;2022-10-16T10:34:11;6.63;;;4.63;;
23496;SDS011;11925;48.122;11.560;2022-10-16T10:36:53;8.82;;;5.25;;
23496;SDS011;11925;48.122;11.560;2022-10-16T10:39:28;6.10;;;4.30;;
23496;SDS011;11925;48.122;11.560;2022-10-16T10:42:06;6.20;;;4.80;;
23496;SDS011;11925;48.122;11.560;2022-10-16T10:44:46;6.05;;;4.25;;
23496;SDS011;11925;48.122;11.560;2022-10-16T10:47:46;6.40;;;4.78;;
23496;SDS011;11925;48.122;11.560;2022-10-16T10:50:23;6.97;;;4.13;;
23496;SDS011;11925;48.122;11.560;2022-10-16T10:52:59;5.60;;;4.13;;
23496;SDS011;11925;48.122;11.560;2022-10-16T10:55:38;6.97;;;4.00;;
23496;SDS011;11925;48.122;11.560;2022-10-16T10:58:15;7.68;;;4.88;;
23496;SDS011;11925;48.122;11.560;2022-10-16T11:01:15;7.85;;;3.72;;
23496;SDS011;11925;48.122;11.560;2022-10-16T11:03:54;7.25;;;4.13;;
23496;SDS011;11925;48.122;11.560;2022-10-16T11:06:32;5.35;;;3.72;;
23496;SDS011;11925;48.122;11.560;2022-10-16T11:09:07;4.47;;;3.30;;
23496;SDS011;11925;48.122;11.560;2022-10-16T11:11:43;5.20;;;3.67;;
23496;SDS011;11925;48.122;11.560;2022-10-16T11:14:17;5.07;;;3.58;;
23496;SDS011;11925;48.122;11.560;2022-10-16T11:16:50;5.47;;;3.70;;
23496;SDS011;11925;48.122;11.560;2022-10-16T11:19:25;5.18;;;4.22;;
23496;SDS011;11925;48.122;11.560;2022-10-16T11:22:03;6.00;;;4.03;;
23496;SDS011;11925;48.122;11.560;2022-10-16T11:24:41;5.60;;;3.83;;
23496;SDS011;11925;48.122;11.560;2022-10-16T11:27:14;7.72;;;4.18;;
23496;SDS011;11925;48.122;11.560;2022-10-16T11:29:46;6.25;;;3.83;;
23496;SDS011;11925;48.122;11.560;2022-10-16T11:32:20;7.22;;;4.20;;
23496;SDS011;11925;48.122;11.560;2022-10-16T11:34:55;6.53;;;4.32;;
23496;SDS011;11925;48.122;11.560;2022-10-16T11:37:28;8.55;;;4.22;;
23496;SDS011;11925;48.122;11.560;2022-10-16T11:40:03;7.25;;;4.40;;
23496;SDS011;11925;48.122;11.560;2022-10-16T11:42:44;6.47;;;4.20;;
23496;SDS011;11925;48.122;11.560;2022-10-16T11:45:27;6.85;;;4.65;;
23496;SDS011;11925;48.122;11.560;2022-10-16T11:48:02;7.20;;;4.65;;
23496;SDS011;11925;48.122;11.560;2022-10-16T11:50:42;6.95;;;4.57;;
23496;SDS011;11925;48.122;11.560;2022-10-16T11:53:20;6.47;;;4.32;;
23496;SDS011;11925;48.122;11.560;2022-10-16T11:55:56;5.95;;;3.80;;
23496;SDS011;11925;48.122;11.560;2022-10-16T11:58:26;8.20;;;4.03;;
23496;SDS011;11925;48.122;11.560;2022-10-16T12:00:58;5.25;;;3.58;;
23496;SDS011;11925;48.122;11.560;2022-10-16T12:03:39;5.97;;;3.92;;
23496;SDS011;11925;48.122;11.560;2022-10-16T12:06:25;6.18;;;4.30;;
23496;SDS011;11925;48.122;11.560;2022-10-16T12:08:59;6.60;;;3.92;;
23496;SDS011;11925;48.122;11.560;2022-10-16T12:11:33;5.93;;;3.72;;
23496;SDS011;11925;48.122;11.560;2022-10-16T12:14:04;5.40;;;3.72;;
23496;SDS011;11925;48.122;11.560;2022-10-16T12:16:50;5.28;;;3.40;;
23496;SDS011;11925;48.122;11.560;2022-10-16T12:19:20;6.07;;;4.22;;
23496;SDS011;11925;48.122;11.560;2022-10-16T12:21:52;6.93;;;3.67;;
23496;SDS011;11925;48.122;11.560;2022-10-16T12:24:29;6.30;;;3.75;;
23496;SDS011;11925;48.122;11.560;2022-10-16T12:27:04;5.65;;;3.45;;
23496;SDS011;11925;48.122;11.560;2022-10-16T12:29:35;4.72;;;3.10;;
23496;SDS011;11925;48.122;11.560;2022-10-16T12:32:18;5.18;;;3.30;;
23496;SDS011;11925;48.122;11.560;2022-10-16T12:35:17;6.45;;;3.83;;
23496;SDS011;11925;48.122;11.560;2022-10-16T12:37:49;4.88;;;2.95;;
23496;SDS011;11925;48.122;11.560;2022-10-16T12:40:26;5.93;;;3.60;;
23496;SDS011;11925;48.122;11.560;2022-10-16T12:42:56;6.30;;;2.97;;
23496;SDS011;11925;48.122;11.560;2022-10-16T12:45:26;5.95;;;3.47;;
23496;SDS011;11925;48.122;11.560;2022-10-16T12:47:58;5.07;;;3.25;;
23496;SDS011;11925;48.122;11.560;2022-10-16T12:50:32;5.20;;;3.20;;
23496;SDS011;11925;48.122;11.560;2022-10-16T12:53:03;4.97;;;3.25;;
23496;SDS011;11925;48.122;11.560;2022-10-16T12:55:47;4.82;;;3.10;;
23496;SDS011;11925;48.122;11.560;2022-10-16T12:58:27;5.03;;;2.63;;
23496;SDS011;11925;48.122;11.560;2022-10-16T13:01:12;4.55;;;3.13;;
23496;SDS011;11925;48.122;11.560;2022-10-16T13:03:57;5.03;;;2.95;;
23496;SDS011;11925;48.122;11.560;2022-10-16T13:06:44;3.85;;;2.90;;
23496;SDS011;11925;48.122;11.560;2022-10-16T13:09:26;4.40;;;2.90;;
23496;SDS011;11925;48.122;11.560;2022-10-16T13:12:13;4.43;;;2.50;;
23496;SDS011;11925;48.122;11.560;2022-10-16T13:14:52;4.13;;;2.83;;
23496;SDS011;11925;48.122;11.560;2022-10-16T13:17:45;5.10;;;2.85;;
23496;SDS011;11925;48.122;11.560;2022-10-16T13:20:27;3.97;;;2.55;;
23496;SDS011;11925;48.122;11.560;2022-10-16T13:23:02;3.42;;;2.40;;
23496;SDS011;11925;48.122;11.560;2022-10-16T13:25:40;3.88;;;2.33;;
23496;SDS011;11925;48.122;11.560;2022-10-16T13:28:17;3.43;;;2.50;;
23496;SDS011;11925;48.122;11.560;2022-10-16T13:30:51;4.22;;;2.45;;
23496;SDS011;11925;48.122;11.560;2022-10-16T13:33:24;4.57;;;2.58;;
23496;SDS011;11925;48.122;11.560;2022-10-16T13:35:58;3.88;;;2.42;;
23496;SDS011;11925;48.122;11.560;2022-10-16T13:38:27;4.10;;;2.38;;
23496;SDS011;11925;48.122;11.560;2022-10-16T13:40:58;4.40;;;2.50;;
23496;SDS011;11925;48.122;11.560;2022-10-16T13:43:29;3.25;;;2.20;;
23496;SDS011;11925;48.122;11.560;2022-10-16T13:46:02;4.05;;;2.20;;
23496;SDS011;11925;48.122;11.560;2022-10-16T13:48:32;4.60;;;2.93;;
23496;SDS011;11925;48.122;11.560;2022-10-16T13:51:03;3.40;;;2.38;;
23496;SDS011;11925;48.122;11.560;2022-10-16T13:53:34;3.63;;;2.00;;
23496;SDS011;11925;48.122;11.560;2022-10-16T13:56:06;3.75;;;2.17;;
23496;SDS011;11925;48.122;11.560;2022-10-16T13:58:37;3.28;;;2.28;;
23496;SDS011;11925;48.122;11.560;2022-10-16T14:01:06;5.07;;;2.10;;
23496;SDS011;11925;48.122;11.560;2022-10-16T14:03:44;2.92;;;2.13;;
23496;SDS011;11925;48.122;11.560;2022-10-16T14:06:14;3.55;;;2.42;;
23496;SDS011;11925;48.122;11.560;2022-10-16T14:08:44;5.00;;;2.20;;
23496;SDS011;11925;48.122;11.560;2022-10-16T14:11:21;5.63;;;2.00;;
23496;SDS011;11925;48.122;11.560;2022-10-16T14:13:51;2.92;;;1.83;;
23496;SDS011;11925;48.122;11.560;2022-10-16T14:16:20;3.90;;;2.00;;
23496;SDS011;11925;48.122;11.560;2022-10-16T14:18:53;3.30;;;1.90;;
23496;SDS011;11925;48.122;11.560;2022-10-16T14:21:25;3.47;;;2.38;;
23496;SDS011;11925;48.122;11.560;2022-10-16T14:23:53;2.67;;;2.10;;
23496;SDS011;11925;48.122;11.560;2022-10-16T14:26:24;2.90;;;2.10;;
23496;SDS011;11925;48.122;11.560;2022-10-16T14:29:08;3.15;;;2.10;;
23496;SDS011;11925;48.122;11.560;2022-10-16T14:31:38;4.00;;;1.98;;
23496;SDS011;11925;48.122;11.560;2022-10-16T14:36:54;3.15;;;2.40;;
23496;SDS011;11925;48.122;11.560;2022-10-16T14:39:23;5.60;;;2.83;;
23496;SDS011;11925;48.122;11.560;2022-10-16T14:41:56;3.80;;;2.80;;
23496;SDS011;11925;48.122;11.560;2022-10-16T14:44:27;3.53;;;2.58;;
23496;SDS011;11925;48.122;11.560;2022-10-16T14:47:05;4.25;;;2.95;;
23496;SDS011;11925;48.122;11.560;2022-10-16T14:49:36;5.22;;;3.03;;
23496;SDS011;11925;48.122;11.560;2022-10-16T14:52:07;4.30;;;3.17;;
23496;SDS011;11925;48.122;11.560;2022-10-16T14:54:37;3.50;;;2.70;;
23496;SDS011;11925;48.122;11.560;2022-10-16T14:57:15;4.82;;;3.55;;
23496;SDS011;11925;48.122;11.560;2022-10-16T14:59:46;6.43;;;3.40;;
23496;SDS011;11925;48.122;11.560;2022-10-16T15:02:27;5.90;;;3.90;;
23496;SDS011;11925;48.122;11.560;2022-10-16T15:04:57;5.15;;;3.55;;
23496;SDS011;11925;48.122;11.560;2022-10-16T15:07:33;4.50;;;3.40;;
23496;SDS011;11925;48.122;11.560;2022-10-16T15:10:01;4.72;;;3.58;;
23496;SDS011;11925;48.122;11.560;2022-10-16T15:12:31;5.57;;;3.67;;
23496;SDS011;11925;48.122;11.560;2022-10-16T15:14:59;5.72;;;3.90;;
23496;SDS011;11925;48.122;11.560;2022-10-16T15:17:27;4.70;;;3.60;;
23496;SDS011;11925;48.122;11.560;2022-10-16T15:19:58;5.68;;;3.97;;
23496;SDS011;11925;48.122;11.560;2022-10-16T15:22:27;5.25;;;3.97;;